Terminal Aerodrome Forecast
Issued by NWS

Home | Current Version | Previous Version | Text Only | Print | Product List | Glossary On
Versions: 1 2 3 4 5 6 7 8 9 10 11 12 13 14 15 16 17 18 19 20 21 22 23 24 25 26 27 28 29 30 31 32 33 34
000
FTUS45 KBOI 071720
TAFJER
TAF
KJER 071720Z 0718/0818 VRB05KT P6SM VCFG FEW002
      TEMPO 0718/0720 2SM BR
     FM072000 VRB05KT P6SM SKC
     FM080800 VRB05KT P6SM SCT008
      TEMPO 0808/0810 BKN008
     FM081000 VRB05KT 4SM BR OVC005
     FM081300 VRB05KT 3/4SM BR OVC004=

USA.gov is the U.S. government's official web portal to all federal, state and local government web resources and services.